Lono, Arkansas
Current Conditions -  °F | °C
As of 9:56 AM on Friday 21 Nov 2014 (Local Time) from KADF Reporting Station
Light Rain Light Rain  
Wind Chill: 45°   Ceiling: 300
Heat Index: 48°   Visibility: 4mi
Dew Point: 48°   Wind: 7mph
Humidity: 100%   Direction: 30°NNE
Pressure: 30.28"   Gusts: NA
Location:  34.2195°N, 92.6052°W
Report Text: KADF 211556Z AUTO 03006KT 4SM -RA BR OVC003 09/09 A3028 RMK AO2 T00880088 P0000 SLP267
Loading
Personal Weather Stations






























Interactive Weather Map New forecast layout! Learn more

10-Day Weather Forecast

Advertisements
Track Severe Weather on mobile